Nilopolis, Brazil
Current Conditions -  °F | °C
As of 11:00 PM on Tuesday 27 Jan 2015 (Local Time) from SBAF Reporting Station
Scattered Clouds Scattered Clouds  
Wind Chill: 77°   Ceiling: Unl
Heat Index: 78°   Visibility: 6mi
Dew Point: 72°   Wind: 3mph
Humidity: 83%   Direction: 50°NE
Pressure: 29.94"   Gusts: NA
Location:  22.8°S, 43.42°W
Report Text: SBAF 280100Z 05003KT 9999 FEW020 SCT100 25/22 Q1014
Loading
Personal Weather Stations






























Interactive Weather Map New forecast layout! Learn more

10-Day Weather Forecast

Advertisements
Track Severe Weather on mobile